sensor_id;sensor_type;location;lat;lon;timestamp;P1;durP1;ratioP1;P2;durP2;ratioP2
45296;SDS011;31040;51.622;10.420;2024-03-25T00:01:03;4.30;;;1.88;;
45296;SDS011;31040;51.622;10.420;2024-03-25T00:03:30;3.63;;;1.75;;
45296;SDS011;31040;51.622;10.420;2024-03-25T00:05:56;3.28;;;1.80;;
45296;SDS011;31040;51.622;10.420;2024-03-25T00:08:23;2.58;;;1.77;;
45296;SDS011;31040;51.622;10.420;2024-03-25T00:10:49;2.80;;;1.60;;
45296;SDS011;31040;51.622;10.420;2024-03-25T00:13:16;2.28;;;1.77;;
45296;SDS011;31040;51.622;10.420;2024-03-25T00:15:42;3.13;;;1.65;;
45296;SDS011;31040;51.622;10.420;2024-03-25T00:18:09;5.55;;;2.85;;
45296;SDS011;31040;51.622;10.420;2024-03-25T00:20:38;2.88;;;1.65;;
45296;SDS011;31040;51.622;10.420;2024-03-25T00:23:05;4.80;;;1.90;;
45296;SDS011;31040;51.622;10.420;2024-03-25T00:25:32;2.80;;;1.50;;
45296;SDS011;31040;51.622;10.420;2024-03-25T00:28:02;5.50;;;1.65;;
45296;SDS011;31040;51.622;10.420;2024-03-25T00:30:30;4.38;;;1.50;;
45296;SDS011;31040;51.622;10.420;2024-03-25T00:32:57;5.40;;;1.80;;
45296;SDS011;31040;51.622;10.420;2024-03-25T00:35:23;3.30;;;1.67;;
45296;SDS011;31040;51.622;10.420;2024-03-25T00:37:50;2.90;;;1.23;;
45296;SDS011;31040;51.622;10.420;2024-03-25T00:40:16;2.97;;;1.00;;
45296;SDS011;31040;51.622;10.420;2024-03-25T00:42:49;2.05;;;0.80;;
45296;SDS011;31040;51.622;10.420;2024-03-25T00:45:16;1.83;;;0.88;;
45296;SDS011;31040;51.622;10.420;2024-03-25T00:47:42;2.30;;;0.80;;
45296;SDS011;31040;51.622;10.420;2024-03-25T00:50:09;0.82;;;0.63;;
45296;SDS011;31040;51.622;10.420;2024-03-25T00:52:45;1.70;;;0.70;;
45296;SDS011;31040;51.622;10.420;2024-03-25T00:55:11;1.02;;;0.70;;
45296;SDS011;31040;51.622;10.420;2024-03-25T00:57:38;1.70;;;0.70;;
45296;SDS011;31040;51.622;10.420;2024-03-25T01:00:05;1.95;;;0.70;;
45296;SDS011;31040;51.622;10.420;2024-03-25T01:02:33;1.00;;;0.75;;
45296;SDS011;31040;51.622;10.420;2024-03-25T01:05:00;1.58;;;0.98;;
45296;SDS011;31040;51.622;10.420;2024-03-25T01:07:27;1.27;;;0.80;;
45296;SDS011;31040;51.622;10.420;2024-03-25T01:09:54;1.48;;;0.80;;
45296;SDS011;31040;51.622;10.420;2024-03-25T01:12:21;1.27;;;0.80;;
45296;SDS011;31040;51.622;10.420;2024-03-25T01:14:48;1.30;;;0.98;;
45296;SDS011;31040;51.622;10.420;2024-03-25T01:17:16;2.63;;;0.98;;
45296;SDS011;31040;51.622;10.420;2024-03-25T01:19:42;1.83;;;0.98;;
45296;SDS011;31040;51.622;10.420;2024-03-25T01:22:09;2.50;;;1.38;;
45296;SDS011;31040;51.622;10.420;2024-03-25T01:24:35;3.47;;;1.20;;
45296;SDS011;31040;51.622;10.420;2024-03-25T01:27:02;3.63;;;1.65;;
45296;SDS011;31040;51.622;10.420;2024-03-25T01:29:28;4.20;;;1.23;;
45296;SDS011;31040;51.622;10.420;2024-03-25T01:31:55;4.60;;;2.13;;
45296;SDS011;31040;51.622;10.420;2024-03-25T01:34:25;2.03;;;0.98;;
45296;SDS011;31040;51.622;10.420;2024-03-25T01:36:51;3.55;;;1.35;;
45296;SDS011;31040;51.622;10.420;2024-03-25T01:39:18;3.97;;;1.60;;
45296;SDS011;31040;51.622;10.420;2024-03-25T01:41:46;4.47;;;2.00;;
45296;SDS011;31040;51.622;10.420;2024-03-25T01:44:12;4.55;;;1.83;;
45296;SDS011;31040;51.622;10.420;2024-03-25T01:46:39;2.72;;;1.90;;
45296;SDS011;31040;51.622;10.420;2024-03-25T01:49:15;2.97;;;1.90;;
45296;SDS011;31040;51.622;10.420;2024-03-25T01:51:42;4.63;;;1.70;;
45296;SDS011;31040;51.622;10.420;2024-03-25T01:54:09;5.45;;;1.50;;
45296;SDS011;31040;51.622;10.420;2024-03-25T01:56:39;3.75;;;2.00;;
45296;SDS011;31040;51.622;10.420;2024-03-25T01:59:07;4.75;;;2.13;;
45296;SDS011;31040;51.622;10.420;2024-03-25T02:01:34;2.40;;;1.48;;
45296;SDS011;31040;51.622;10.420;2024-03-25T02:04:00;3.08;;;1.30;;
45296;SDS011;31040;51.622;10.420;2024-03-25T02:06:28;3.88;;;1.50;;
45296;SDS011;31040;51.622;10.420;2024-03-25T02:09:00;3.72;;;1.63;;
45296;SDS011;31040;51.622;10.420;2024-03-25T02:11:31;3.30;;;1.48;;
45296;SDS011;31040;51.622;10.420;2024-03-25T02:13:58;5.43;;;1.52;;
45296;SDS011;31040;51.622;10.420;2024-03-25T02:16:25;2.45;;;1.40;;
45296;SDS011;31040;51.622;10.420;2024-03-25T02:18:53;2.28;;;1.20;;
45296;SDS011;31040;51.622;10.420;2024-03-25T02:21:19;2.47;;;1.23;;
45296;SDS011;31040;51.622;10.420;2024-03-25T02:23:51;1.50;;;0.95;;
45296;SDS011;31040;51.622;10.420;2024-03-25T02:26:19;1.92;;;1.05;;
45296;SDS011;31040;51.622;10.420;2024-03-25T02:28:51;3.53;;;0.95;;
45296;SDS011;31040;51.622;10.420;2024-03-25T02:31:27;3.13;;;1.10;;
45296;SDS011;31040;51.622;10.420;2024-03-25T02:33:53;1.00;;;0.90;;
45296;SDS011;31040;51.622;10.420;2024-03-25T02:36:21;1.45;;;1.00;;
45296;SDS011;31040;51.622;10.420;2024-03-25T02:38:53;2.22;;;0.90;;
45296;SDS011;31040;51.622;10.420;2024-03-25T02:41:20;2.00;;;1.23;;
45296;SDS011;31040;51.622;10.420;2024-03-25T02:43:50;3.03;;;1.50;;
45296;SDS011;31040;51.622;10.420;2024-03-25T02:46:17;1.95;;;1.00;;
45296;SDS011;31040;51.622;10.420;2024-03-25T02:48:45;1.77;;;1.00;;
45296;SDS011;31040;51.622;10.420;2024-03-25T02:51:12;2.75;;;1.02;;
45296;SDS011;31040;51.622;10.420;2024-03-25T02:53:40;3.30;;;1.20;;
45296;SDS011;31040;51.622;10.420;2024-03-25T02:56:06;1.45;;;1.10;;
45296;SDS011;31040;51.622;10.420;2024-03-25T02:58:33;2.13;;;1.15;;
45296;SDS011;31040;51.622;10.420;2024-03-25T03:00:59;3.00;;;1.52;;
45296;SDS011;31040;51.622;10.420;2024-03-25T03:03:26;4.75;;;1.50;;
45296;SDS011;31040;51.622;10.420;2024-03-25T03:05:53;3.97;;;1.10;;
45296;SDS011;31040;51.622;10.420;2024-03-25T03:08:19;1.65;;;0.93;;
45296;SDS011;31040;51.622;10.420;2024-03-25T03:10:46;1.15;;;1.05;;
45296;SDS011;31040;51.622;10.420;2024-03-25T03:13:12;1.35;;;1.10;;
45296;SDS011;31040;51.622;10.420;2024-03-25T03:15:43;3.25;;;1.45;;
45296;SDS011;31040;51.622;10.420;2024-03-25T03:18:10;2.08;;;0.98;;
45296;SDS011;31040;51.622;10.420;2024-03-25T03:20:37;2.03;;;1.10;;
45296;SDS011;31040;51.622;10.420;2024-03-25T03:23:04;3.17;;;1.30;;
45296;SDS011;31040;51.622;10.420;2024-03-25T03:25:30;4.35;;;1.10;;
45296;SDS011;31040;51.622;10.420;2024-03-25T03:27:57;3.85;;;1.23;;
45296;SDS011;31040;51.622;10.420;2024-03-25T03:30:23;1.65;;;1.10;;
45296;SDS011;31040;51.622;10.420;2024-03-25T03:32:51;1.48;;;1.20;;
45296;SDS011;31040;51.622;10.420;2024-03-25T03:35:17;2.28;;;1.15;;
45296;SDS011;31040;51.622;10.420;2024-03-25T03:37:44;2.20;;;1.40;;
45296;SDS011;31040;51.622;10.420;2024-03-25T03:40:10;2.83;;;1.40;;
45296;SDS011;31040;51.622;10.420;2024-03-25T03:42:37;2.38;;;1.25;;
45296;SDS011;31040;51.622;10.420;2024-03-25T03:45:03;2.30;;;1.30;;
45296;SDS011;31040;51.622;10.420;2024-03-25T03:47:31;2.65;;;1.10;;
45296;SDS011;31040;51.622;10.420;2024-03-25T03:49:57;2.13;;;1.48;;
45296;SDS011;31040;51.622;10.420;2024-03-25T03:52:24;3.20;;;1.42;;
45296;SDS011;31040;51.622;10.420;2024-03-25T03:54:51;3.17;;;1.27;;
45296;SDS011;31040;51.622;10.420;2024-03-25T03:57:20;2.28;;;1.20;;
45296;SDS011;31040;51.622;10.420;2024-03-25T03:59:47;3.13;;;1.50;;
45296;SDS011;31040;51.622;10.420;2024-03-25T04:02:13;4.15;;;1.63;;
45296;SDS011;31040;51.622;10.420;2024-03-25T04:04:40;3.20;;;1.42;;
45296;SDS011;31040;51.622;10.420;2024-03-25T04:07:06;3.08;;;1.10;;
45296;SDS011;31040;51.622;10.420;2024-03-25T04:09:33;3.33;;;1.60;;
45296;SDS011;31040;51.622;10.420;2024-03-25T04:11:59;2.70;;;1.83;;
45296;SDS011;31040;51.622;10.420;2024-03-25T04:14:26;2.92;;;1.40;;
45296;SDS011;31040;51.622;10.420;2024-03-25T04:16:53;3.38;;;1.70;;
45296;SDS011;31040;51.622;10.420;2024-03-25T04:19:23;3.05;;;1.60;;
45296;SDS011;31040;51.622;10.420;2024-03-25T04:21:50;4.68;;;2.08;;
45296;SDS011;31040;51.622;10.420;2024-03-25T04:24:17;2.67;;;1.52;;
45296;SDS011;31040;51.622;10.420;2024-03-25T04:26:44;3.85;;;1.95;;
45296;SDS011;31040;51.622;10.420;2024-03-25T04:29:11;4.15;;;2.30;;
45296;SDS011;31040;51.622;10.420;2024-03-25T04:31:37;4.05;;;1.95;;
45296;SDS011;31040;51.622;10.420;2024-03-25T04:34:04;4.15;;;1.70;;
45296;SDS011;31040;51.622;10.420;2024-03-25T04:36:30;5.97;;;2.38;;
45296;SDS011;31040;51.622;10.420;2024-03-25T04:38:57;5.53;;;2.30;;
45296;SDS011;31040;51.622;10.420;2024-03-25T04:41:23;6.65;;;2.30;;
45296;SDS011;31040;51.622;10.420;2024-03-25T04:43:50;3.08;;;1.40;;
45296;SDS011;31040;51.622;10.420;2024-03-25T04:46:16;5.13;;;1.60;;
45296;SDS011;31040;51.622;10.420;2024-03-25T04:48:42;1.60;;;1.27;;
45296;SDS011;31040;51.622;10.420;2024-03-25T04:51:09;2.42;;;1.23;;
45296;SDS011;31040;51.622;10.420;2024-03-25T04:53:35;2.35;;;1.08;;
45296;SDS011;31040;51.622;10.420;2024-03-25T04:56:02;3.17;;;1.48;;
45296;SDS011;31040;51.622;10.420;2024-03-25T04:58:29;1.75;;;1.20;;
45296;SDS011;31040;51.622;10.420;2024-03-25T05:00:55;2.00;;;1.30;;
45296;SDS011;31040;51.622;10.420;2024-03-25T05:03:22;2.42;;;1.40;;
45296;SDS011;31040;51.622;10.420;2024-03-25T05:05:48;3.08;;;1.55;;
45296;SDS011;31040;51.622;10.420;2024-03-25T05:08:15;2.20;;;1.60;;
45296;SDS011;31040;51.622;10.420;2024-03-25T05:10:41;3.42;;;1.95;;
45296;SDS011;31040;51.622;10.420;2024-03-25T05:13:08;5.28;;;1.75;;
45296;SDS011;31040;51.622;10.420;2024-03-25T05:15:34;4.13;;;1.75;;
45296;SDS011;31040;51.622;10.420;2024-03-25T05:18:01;2.50;;;2.05;;
45296;SDS011;31040;51.622;10.420;2024-03-25T05:20:27;6.10;;;2.50;;
45296;SDS011;31040;51.622;10.420;2024-03-25T05:22:54;4.75;;;2.58;;
45296;SDS011;31040;51.622;10.420;2024-03-25T05:25:20;7.13;;;2.45;;
45296;SDS011;31040;51.622;10.420;2024-03-25T05:27:50;7.28;;;3.00;;
45296;SDS011;31040;51.622;10.420;2024-03-25T05:30:16;6.68;;;2.80;;
45296;SDS011;31040;51.622;10.420;2024-03-25T05:32:42;7.43;;;3.33;;
45296;SDS011;31040;51.622;10.420;2024-03-25T05:35:09;6.90;;;2.47;;
45296;SDS011;31040;51.622;10.420;2024-03-25T05:37:35;9.18;;;2.88;;
45296;SDS011;31040;51.622;10.420;2024-03-25T05:40:02;7.03;;;3.42;;
45296;SDS011;31040;51.622;10.420;2024-03-25T05:42:29;15.60;;;3.47;;
45296;SDS011;31040;51.622;10.420;2024-03-25T05:44:55;6.88;;;2.63;;
45296;SDS011;31040;51.622;10.420;2024-03-25T05:47:21;4.75;;;2.90;;
45296;SDS011;31040;51.622;10.420;2024-03-25T05:49:48;6.82;;;2.65;;
45296;SDS011;31040;51.622;10.420;2024-03-25T05:52:14;6.47;;;2.83;;
45296;SDS011;31040;51.622;10.420;2024-03-25T05:54:41;8.52;;;3.83;;
45296;SDS011;31040;51.622;10.420;2024-03-25T05:57:07;5.28;;;2.80;;
45296;SDS011;31040;51.622;10.420;2024-03-25T05:59:33;4.72;;;2.90;;
45296;SDS011;31040;51.622;10.420;2024-03-25T06:02:00;6.63;;;2.95;;
45296;SDS011;31040;51.622;10.420;2024-03-25T06:04:26;6.35;;;2.75;;
45296;SDS011;31040;51.622;10.420;2024-03-25T06:06:52;5.00;;;2.78;;
45296;SDS011;31040;51.622;10.420;2024-03-25T06:09:19;4.05;;;2.70;;
45296;SDS011;31040;51.622;10.420;2024-03-25T06:11:48;6.15;;;2.70;;
45296;SDS011;31040;51.622;10.420;2024-03-25T06:14:15;8.50;;;3.33;;
45296;SDS011;31040;51.622;10.420;2024-03-25T06:16:41;8.70;;;3.08;;
45296;SDS011;31040;51.622;10.420;2024-03-25T06:19:08;5.28;;;2.95;;
45296;SDS011;31040;51.622;10.420;2024-03-25T06:21:34;9.40;;;3.55;;
45296;SDS011;31040;51.622;10.420;2024-03-25T06:24:01;9.50;;;3.58;;
45296;SDS011;31040;51.622;10.420;2024-03-25T06:26:27;9.07;;;3.05;;
45296;SDS011;31040;51.622;10.420;2024-03-25T06:28:54;7.03;;;3.53;;
45296;SDS011;31040;51.622;10.420;2024-03-25T06:31:20;7.38;;;4.20;;
45296;SDS011;31040;51.622;10.420;2024-03-25T06:34:05;4.55;;;3.38;;
45296;SDS011;31040;51.622;10.420;2024-03-25T06:36:50;7.43;;;3.17;;
45296;SDS011;31040;51.622;10.420;2024-03-25T06:39:16;7.03;;;3.22;;
45296;SDS011;31040;51.622;10.420;2024-03-25T06:41:44;8.18;;;3.60;;
45296;SDS011;31040;51.622;10.420;2024-03-25T06:44:10;5.85;;;2.90;;
45296;SDS011;31040;51.622;10.420;2024-03-25T06:46:37;5.30;;;3.13;;
45296;SDS011;31040;51.622;10.420;2024-03-25T06:49:03;7.50;;;3.25;;
45296;SDS011;31040;51.622;10.420;2024-03-25T06:51:30;7.18;;;3.22;;
45296;SDS011;31040;51.622;10.420;2024-03-25T06:53:56;6.88;;;2.65;;
45296;SDS011;31040;51.622;10.420;2024-03-25T06:56:23;4.30;;;2.45;;
45296;SDS011;31040;51.622;10.420;2024-03-25T06:58:50;6.80;;;2.78;;
45296;SDS011;31040;51.622;10.420;2024-03-25T07:01:17;7.07;;;2.90;;
45296;SDS011;31040;51.622;10.420;2024-03-25T07:03:47;7.18;;;3.00;;
45296;SDS011;31040;51.622;10.420;2024-03-25T07:06:14;9.50;;;2.75;;
45296;SDS011;31040;51.622;10.420;2024-03-25T07:08:40;9.63;;;2.90;;
45296;SDS011;31040;51.622;10.420;2024-03-25T07:11:07;8.27;;;3.03;;
45296;SDS011;31040;51.622;10.420;2024-03-25T07:13:33;7.68;;;3.03;;
45296;SDS011;31040;51.622;10.420;2024-03-25T07:15:59;5.40;;;2.38;;
45296;SDS011;31040;51.622;10.420;2024-03-25T07:18:26;5.25;;;3.10;;
45296;SDS011;31040;51.622;10.420;2024-03-25T07:20:52;4.90;;;2.75;;
45296;SDS011;31040;51.622;10.420;2024-03-25T07:23:19;6.22;;;3.42;;
45296;SDS011;31040;51.622;10.420;2024-03-25T07:25:45;8.63;;;3.65;;
45296;SDS011;31040;51.622;10.420;2024-03-25T07:28:12;8.50;;;4.05;;
45296;SDS011;31040;51.622;10.420;2024-03-25T07:30:38;6.85;;;3.08;;
45296;SDS011;31040;51.622;10.420;2024-03-25T07:33:05;3.38;;;2.20;;
45296;SDS011;31040;51.622;10.420;2024-03-25T07:35:31;7.03;;;2.65;;
45296;SDS011;31040;51.622;10.420;2024-03-25T07:37:59;3.70;;;2.17;;
45296;SDS011;31040;51.622;10.420;2024-03-25T07:40:25;5.35;;;2.95;;
45296;SDS011;31040;51.622;10.420;2024-03-25T07:42:52;7.07;;;2.83;;
45296;SDS011;31040;51.622;10.420;2024-03-25T07:45:18;7.10;;;2.85;;
45296;SDS011;31040;51.622;10.420;2024-03-25T07:47:45;7.47;;;2.65;;
45296;SDS011;31040;51.622;10.420;2024-03-25T07:50:11;13.48;;;4.28;;
45296;SDS011;31040;51.622;10.420;2024-03-25T07:52:38;4.22;;;2.95;;
45296;SDS011;31040;51.622;10.420;2024-03-25T07:55:08;8.13;;;2.53;;
45296;SDS011;31040;51.622;10.420;2024-03-25T07:57:34;7.60;;;2.72;;
45296;SDS011;31040;51.622;10.420;2024-03-25T08:00:01;8.35;;;3.30;;
45296;SDS011;31040;51.622;10.420;2024-03-25T08:02:30;9.23;;;3.05;;
45296;SDS011;31040;51.622;10.420;2024-03-25T08:04:57;6.88;;;2.55;;
45296;SDS011;31040;51.622;10.420;2024-03-25T08:07:23;5.93;;;2.67;;
45296;SDS011;31040;51.622;10.420;2024-03-25T08:09:50;7.28;;;3.03;;
45296;SDS011;31040;51.622;10.420;2024-03-25T08:12:16;7.78;;;3.20;;
45296;SDS011;31040;51.622;10.420;2024-03-25T08:14:43;8.45;;;3.25;;
45296;SDS011;31040;51.622;10.420;2024-03-25T08:17:09;7.05;;;3.40;;
45296;SDS011;31040;51.622;10.420;2024-03-25T08:19:35;9.10;;;3.55;;
45296;SDS011;31040;51.622;10.420;2024-03-25T08:22:02;8.73;;;4.00;;
45296;SDS011;31040;51.622;10.420;2024-03-25T08:24:29;8.57;;;3.10;;
45296;SDS011;31040;51.622;10.420;2024-03-25T08:26:56;20.55;;;5.70;;
45296;SDS011;31040;51.622;10.420;2024-03-25T08:29:22;7.55;;;3.70;;
45296;SDS011;31040;51.622;10.420;2024-03-25T08:31:48;8.35;;;3.35;;
45296;SDS011;31040;51.622;10.420;2024-03-25T08:34:15;6.82;;;2.95;;
45296;SDS011;31040;51.622;10.420;2024-03-25T08:36:41;8.55;;;3.20;;
45296;SDS011;31040;51.622;10.420;2024-03-25T08:39:08;6.10;;;3.20;;
45296;SDS011;31040;51.622;10.420;2024-03-25T08:41:34;8.15;;;2.38;;
45296;SDS011;31040;51.622;10.420;2024-03-25T08:44:00;6.55;;;2.35;;
45296;SDS011;31040;51.622;10.420;2024-03-25T08:46:27;5.53;;;2.22;;
45296;SDS011;31040;51.622;10.420;2024-03-25T08:48:53;6.95;;;2.60;;
45296;SDS011;31040;51.622;10.420;2024-03-25T08:51:20;5.28;;;2.60;;
45296;SDS011;31040;51.622;10.420;2024-03-25T08:53:46;6.07;;;2.63;;
45296;SDS011;31040;51.622;10.420;2024-03-25T08:56:13;6.88;;;3.03;;
45296;SDS011;31040;51.622;10.420;2024-03-25T08:58:39;2.85;;;2.30;;
45296;SDS011;31040;51.622;10.420;2024-03-25T09:01:05;8.10;;;2.75;;
45296;SDS011;31040;51.622;10.420;2024-03-25T09:03:32;4.22;;;2.30;;
45296;SDS011;31040;51.622;10.420;2024-03-25T09:05:58;4.97;;;2.63;;
45296;SDS011;31040;51.622;10.420;2024-03-25T09:08:25;6.57;;;2.75;;
45296;SDS011;31040;51.622;10.420;2024-03-25T09:10:51;5.95;;;2.40;;
45296;SDS011;31040;51.622;10.420;2024-03-25T09:13:32;3.67;;;1.98;;
45296;SDS011;31040;51.622;10.420;2024-03-25T09:15:58;7.07;;;2.83;;
45296;SDS011;31040;51.622;10.420;2024-03-25T09:18:25;4.65;;;2.72;;
45296;SDS011;31040;51.622;10.420;2024-03-25T09:20:51;3.92;;;2.70;;
45296;SDS011;31040;51.622;10.420;2024-03-25T09:23:18;6.82;;;2.58;;
45296;SDS011;31040;51.622;10.420;2024-03-25T09:25:51;12.20;;;3.13;;
45296;SDS011;31040;51.622;10.420;2024-03-25T09:28:18;19.13;;;3.70;;
45296;SDS011;31040;51.622;10.420;2024-03-25T09:30:45;6.90;;;3.35;;
45296;SDS011;31040;51.622;10.420;2024-03-25T09:33:11;13.32;;;4.28;;
45296;SDS011;31040;51.622;10.420;2024-03-25T09:35:38;7.45;;;2.67;;
45296;SDS011;31040;51.622;10.420;2024-03-25T09:38:05;6.25;;;3.25;;
45296;SDS011;31040;51.622;10.420;2024-03-25T09:40:34;4.70;;;2.58;;
45296;SDS011;31040;51.622;10.420;2024-03-25T09:43:03;7.82;;;2.60;;
45296;SDS011;31040;51.622;10.420;2024-03-25T09:45:33;5.57;;;2.42;;
45296;SDS011;31040;51.622;10.420;2024-03-25T09:48:01;8.27;;;3.05;;
45296;SDS011;31040;51.622;10.420;2024-03-25T09:50:32;5.22;;;2.45;;
45296;SDS011;31040;51.622;10.420;2024-03-25T09:52:59;7.75;;;3.15;;
45296;SDS011;31040;51.622;10.420;2024-03-25T09:55:25;7.50;;;3.20;;
45296;SDS011;31040;51.622;10.420;2024-03-25T09:57:51;5.97;;;2.45;;
45296;SDS011;31040;51.622;10.420;2024-03-25T10:00:18;4.88;;;2.67;;
45296;SDS011;31040;51.622;10.420;2024-03-25T10:02:44;6.20;;;2.90;;
45296;SDS011;31040;51.622;10.420;2024-03-25T10:05:11;10.68;;;2.50;;
45296;SDS011;31040;51.622;10.420;2024-03-25T10:07:37;5.78;;;2.58;;
45296;SDS011;31040;51.622;10.420;2024-03-25T10:10:04;9.57;;;3.05;;
45296;SDS011;31040;51.622;10.420;2024-03-25T10:12:31;5.85;;;2.30;;
45296;SDS011;31040;51.622;10.420;2024-03-25T10:14:58;6.88;;;2.50;;
45296;SDS011;31040;51.622;10.420;2024-03-25T10:17:25;6.20;;;2.75;;
45296;SDS011;31040;51.622;10.420;2024-03-25T10:19:53;8.50;;;2.78;;
45296;SDS011;31040;51.622;10.420;2024-03-25T10:22:20;6.28;;;2.47;;
45296;SDS011;31040;51.622;10.420;2024-03-25T10:24:47;6.85;;;3.53;;
45296;SDS011;31040;51.622;10.420;2024-03-25T10:29:55;5.93;;;2.45;;
45296;SDS011;31040;51.622;10.420;2024-03-25T10:32:22;4.07;;;2.33;;
45296;SDS011;31040;51.622;10.420;2024-03-25T10:34:54;5.38;;;2.60;;
45296;SDS011;31040;51.622;10.420;2024-03-25T10:37:21;5.72;;;2.30;;
45296;SDS011;31040;51.622;10.420;2024-03-25T10:39:50;7.05;;;2.15;;
45296;SDS011;31040;51.622;10.420;2024-03-25T10:42:21;4.03;;;2.15;;
45296;SDS011;31040;51.622;10.420;2024-03-25T10:44:48;4.95;;;2.20;;
45296;SDS011;31040;51.622;10.420;2024-03-25T10:47:27;2.88;;;1.58;;
45296;SDS011;31040;51.622;10.420;2024-03-25T10:52:26;6.20;;;2.60;;
45296;SDS011;31040;51.622;10.420;2024-03-25T10:54:55;5.45;;;2.45;;
45296;SDS011;31040;51.622;10.420;2024-03-25T10:57:22;4.22;;;1.92;;
45296;SDS011;31040;51.622;10.420;2024-03-25T10:59:49;6.22;;;2.08;;
45296;SDS011;31040;51.622;10.420;2024-03-25T11:02:15;3.42;;;1.73;;
45296;SDS011;31040;51.622;10.420;2024-03-25T11:04:46;10.75;;;2.88;;
45296;SDS011;31040;51.622;10.420;2024-03-25T11:07:15;6.78;;;2.30;;
45296;SDS011;31040;51.622;10.420;2024-03-25T11:09:44;6.95;;;2.85;;
45296;SDS011;31040;51.622;10.420;2024-03-25T11:12:11;4.57;;;2.30;;
45296;SDS011;31040;51.622;10.420;2024-03-25T11:14:39;4.07;;;2.20;;
45296;SDS011;31040;51.622;10.420;2024-03-25T11:17:16;7.25;;;2.05;;
45296;SDS011;31040;51.622;10.420;2024-03-25T11:19:42;4.38;;;2.10;;
45296;SDS011;31040;51.622;10.420;2024-03-25T11:22:10;6.18;;;2.42;;
45296;SDS011;31040;51.622;10.420;2024-03-25T11:24:36;4.72;;;2.55;;
45296;SDS011;31040;51.622;10.420;2024-03-25T11:27:07;9.75;;;3.17;;
45296;SDS011;31040;51.622;10.420;2024-03-25T11:29:34;6.38;;;2.50;;
45296;SDS011;31040;51.622;10.420;2024-03-25T11:32:04;7.13;;;2.00;;
45296;SDS011;31040;51.622;10.420;2024-03-25T11:34:31;9.43;;;2.42;;
45296;SDS011;31040;51.622;10.420;2024-03-25T11:36:58;5.53;;;2.63;;
45296;SDS011;31040;51.622;10.420;2024-03-25T11:39:24;5.82;;;2.10;;
45296;SDS011;31040;51.622;10.420;2024-03-25T11:41:52;6.05;;;2.17;;
45296;SDS011;31040;51.622;10.420;2024-03-25T11:44:18;8.07;;;2.15;;
45296;SDS011;31040;51.622;10.420;2024-03-25T11:46:50;7.43;;;1.92;;
45296;SDS011;31040;51.622;10.420;2024-03-25T11:49:20;5.45;;;2.03;;
45296;SDS011;31040;51.622;10.420;2024-03-25T11:52:02;7.22;;;2.25;;
45296;SDS011;31040;51.622;10.420;2024-03-25T11:54:30;6.30;;;3.13;;
45296;SDS011;31040;51.622;10.420;2024-03-25T11:57:12;3.42;;;1.92;;
45296;SDS011;31040;51.622;10.420;2024-03-25T12:00:04;2.65;;;1.60;;
45296;SDS011;31040;51.622;10.420;2024-03-25T12:02:45;4.60;;;2.22;;
45296;SDS011;31040;51.622;10.420;2024-03-25T12:05:19;3.15;;;1.80;;
45296;SDS011;31040;51.622;10.420;2024-03-25T12:07:48;6.13;;;2.10;;
45296;SDS011;31040;51.622;10.420;2024-03-25T12:10:32;9.13;;;2.05;;
45296;SDS011;31040;51.622;10.420;2024-03-25T12:13:20;6.47;;;2.65;;
45296;SDS011;31040;51.622;10.420;2024-03-25T12:15:49;5.30;;;1.80;;
45296;SDS011;31040;51.622;10.420;2024-03-25T12:18:17;5.53;;;1.38;;
45296;SDS011;31040;51.622;10.420;2024-03-25T12:20:54;3.35;;;1.20;;
45296;SDS011;31040;51.622;10.420;2024-03-25T12:23:33;6.80;;;1.63;;
45296;SDS011;31040;51.622;10.420;2024-03-25T12:26:00;5.97;;;2.22;;
45296;SDS011;31040;51.622;10.420;2024-03-25T12:28:32;5.43;;;1.95;;
45296;SDS011;31040;51.622;10.420;2024-03-25T12:31:02;4.32;;;2.13;;
45296;SDS011;31040;51.622;10.420;2024-03-25T12:33:28;5.70;;;2.00;;
45296;SDS011;31040;51.622;10.420;2024-03-25T12:35:55;3.53;;;1.92;;
45296;SDS011;31040;51.622;10.420;2024-03-25T12:40:48;4.78;;;1.60;;
45296;SDS011;31040;51.622;10.420;2024-03-25T12:43:15;6.70;;;2.05;;
45296;SDS011;31040;51.622;10.420;2024-03-25T12:45:41;4.68;;;1.92;;
45296;SDS011;31040;51.622;10.420;2024-03-25T12:48:08;4.93;;;1.98;;
45296;SDS011;31040;51.622;10.420;2024-03-25T12:50:35;7.35;;;2.45;;
45296;SDS011;31040;51.622;10.420;2024-03-25T12:53:02;6.90;;;2.13;;
45296;SDS011;31040;51.622;10.420;2024-03-25T12:55:31;6.93;;;2.20;;
45296;SDS011;31040;51.622;10.420;2024-03-25T12:57:58;4.00;;;2.63;;
45296;SDS011;31040;51.622;10.420;2024-03-25T13:00:24;6.90;;;2.40;;
45296;SDS011;31040;51.622;10.420;2024-03-25T13:02:51;5.50;;;2.25;;
45296;SDS011;31040;51.622;10.420;2024-03-25T13:05:21;2.65;;;1.67;;
45296;SDS011;31040;51.622;10.420;2024-03-25T13:07:47;4.05;;;2.00;;
45296;SDS011;31040;51.622;10.420;2024-03-25T13:10:14;5.25;;;1.60;;
45296;SDS011;31040;51.622;10.420;2024-03-25T13:12:40;5.18;;;1.70;;
45296;SDS011;31040;51.622;10.420;2024-03-25T13:15:07;5.35;;;1.60;;
45296;SDS011;31040;51.622;10.420;2024-03-25T13:17:34;5.50;;;1.67;;
45296;SDS011;31040;51.622;10.420;2024-03-25T13:20:00;4.35;;;1.98;;
45296;SDS011;31040;51.622;10.420;2024-03-25T13:22:27;4.70;;;1.67;;
45296;SDS011;31040;51.622;10.420;2024-03-25T13:24:56;4.97;;;1.63;;
45296;SDS011;31040;51.622;10.420;2024-03-25T13:27:22;5.47;;;2.15;;
45296;SDS011;31040;51.622;10.420;2024-03-25T13:29:48;7.38;;;2.20;;
45296;SDS011;31040;51.622;10.420;2024-03-25T13:32:17;7.97;;;3.53;;
45296;SDS011;31040;51.622;10.420;2024-03-25T13:34:43;7.72;;;2.83;;
45296;SDS011;31040;51.622;10.420;2024-03-25T13:37:11;3.58;;;2.10;;
45296;SDS011;31040;51.622;10.420;2024-03-25T13:39:37;12.75;;;2.67;;
45296;SDS011;31040;51.622;10.420;2024-03-25T13:42:04;6.35;;;3.10;;
45296;SDS011;31040;51.622;10.420;2024-03-25T13:44:30;7.95;;;2.75;;
45296;SDS011;31040;51.622;10.420;2024-03-25T13:46:57;5.65;;;2.33;;
45296;SDS011;31040;51.622;10.420;2024-03-25T13:49:23;4.13;;;1.40;;
45296;SDS011;31040;51.622;10.420;2024-03-25T13:52:01;6.15;;;2.33;;
45296;SDS011;31040;51.622;10.420;2024-03-25T13:54:32;6.50;;;2.13;;
45296;SDS011;31040;51.622;10.420;2024-03-25T13:56:59;3.95;;;2.00;;
45296;SDS011;31040;51.622;10.420;2024-03-25T13:59:28;6.20;;;2.40;;
45296;SDS011;31040;51.622;10.420;2024-03-25T14:01:54;4.13;;;2.05;;
45296;SDS011;31040;51.622;10.420;2024-03-25T14:04:21;8.15;;;2.00;;
45296;SDS011;31040;51.622;10.420;2024-03-25T14:06:47;4.88;;;3.00;;
45296;SDS011;31040;51.622;10.420;2024-03-25T14:09:24;2.50;;;1.60;;
45296;SDS011;31040;51.622;10.420;2024-03-25T14:11:51;6.97;;;1.92;;
45296;SDS011;31040;51.622;10.420;2024-03-25T14:14:17;2.38;;;1.60;;
45296;SDS011;31040;51.622;10.420;2024-03-25T14:16:44;8.50;;;2.00;;
45296;SDS011;31040;51.622;10.420;2024-03-25T14:19:11;7.97;;;2.10;;
45296;SDS011;31040;51.622;10.420;2024-03-25T14:21:38;2.63;;;1.67;;
45296;SDS011;31040;51.622;10.420;2024-03-25T14:24:05;6.28;;;2.17;;
45296;SDS011;31040;51.622;10.420;2024-03-25T14:26:32;3.33;;;1.98;;
45296;SDS011;31040;51.622;10.420;2024-03-25T14:28:59;6.40;;;2.30;;
45296;SDS011;31040;51.622;10.420;2024-03-25T14:31:26;8.18;;;3.00;;
45296;SDS011;31040;51.622;10.420;2024-03-25T14:33:55;4.55;;;2.05;;
45296;SDS011;31040;51.622;10.420;2024-03-25T14:36:22;5.22;;;2.10;;
45296;SDS011;31040;51.622;10.420;2024-03-25T14:38:48;6.15;;;1.83;;
45296;SDS011;31040;51.622;10.420;2024-03-25T14:41:19;5.68;;;2.08;;
45296;SDS011;31040;51.622;10.420;2024-03-25T14:43:46;6.43;;;1.70;;